Time;durP1;ratioP1;P1;durP2;ratioP2;P2;SDS_P1;SDS_P2;PMS_P1;PMS_P2;Temp;Humidity;BMP_temperature;BMP_pressure;BME280_temperature;BME280_humidity;BME280_pressure;Samples;Min_cycle;Max_cycle;Signal;HPM_P1;HPM_P2
2020/12/06 00:01:39;;;;;;;19.13;15.17;;;1.90;99.90;;;;;;5046864;28;20202;-84
2020/12/06 00:04:07;;;;;;;18.90;14.20;;;1.90;99.90;;;;;;5047293;28;20206;-78
2020/12/06 00:06:33;;;;;;;17.47;13.40;;;1.80;99.90;;;;;;5047628;28;20229;-80
2020/12/06 00:09:00;;;;;;;18.87;14.20;;;1.80;99.90;;;;;;5047060;28;20214;-79
2020/12/06 00:11:26;;;;;;;21.33;15.47;;;1.80;99.90;;;;;;5047752;28;20271;-78
2020/12/06 00:13:53;;;;;;;20.60;15.40;;;1.70;99.90;;;;;;5047388;28;20206;-80
2020/12/06 00:16:20;;;;;;;18.90;14.77;;;1.70;99.90;;;;;;5046573;28;20229;-79
2020/12/06 00:18:47;;;;;;;22.63;16.13;;;1.70;99.90;;;;;;5047318;28;20562;-82
2020/12/06 00:21:16;;;;;;;19.33;15.23;;;1.70;99.90;;;;;;5047399;28;20235;-84
2020/12/06 00:23:43;;;;;;;19.33;13.33;;;1.60;99.90;;;;;;5045999;28;20247;-80
2020/12/06 00:26:09;;;;;;;17.13;13.90;;;1.60;99.90;;;;;;5035475;28;20232;-80
2020/12/06 00:28:35;;;;;;;15.60;12.87;;;1.60;99.90;;;;;;5027274;28;20243;-80
2020/12/06 00:31:02;;;;;;;17.03;12.60;;;1.50;99.90;;;;;;5027333;28;20565;-85
2020/12/06 00:33:29;;;;;;;18.17;13.67;;;1.50;99.90;;;;;;5028497;28;20790;-79
2020/12/06 00:35:55;;;;;;;17.40;13.07;;;1.50;99.90;;;;;;5028160;28;20203;-81
2020/12/06 00:38:23;;;;;;;21.53;15.30;;;1.50;99.90;;;;;;5026860;28;20321;-78
2020/12/06 00:40:49;;;;;;;18.63;13.50;;;1.40;99.90;;;;;;5028106;28;20210;-84
2020/12/06 00:43:15;;;;;;;17.23;13.83;;;1.40;99.90;;;;;;5028812;28;20206;-85
2020/12/06 00:45:42;;;;;;;18.03;14.10;;;1.30;99.90;;;;;;5027224;28;20266;-78
2020/12/06 00:48:08;;;;;;;19.07;15.23;;;1.30;99.90;;;;;;5026634;28;20528;-85
2020/12/06 00:50:34;;;;;;;19.63;14.13;;;1.30;99.90;;;;;;5028463;28;20214;-83
2020/12/06 00:53:00;;;;;;;18.77;15.43;;;1.20;99.90;;;;;;5027380;28;20215;-79
2020/12/06 00:55:28;;;;;;;21.93;17.07;;;1.20;99.90;;;;;;5025993;28;20199;-80
2020/12/06 00:57:54;;;;;;;24.00;17.80;;;1.10;99.90;;;;;;5027337;28;20209;-79
2020/12/06 01:00:20;;;;;;;25.50;18.13;;;1.00;99.90;;;;;;5027570;28;20194;-85
2020/12/06 01:02:57;;;;;;;22.73;16.67;;;1.00;99.90;;;;;;5029265;28;20218;-80
2020/12/06 01:05:23;;;;;;;22.97;17.13;;;1.00;99.90;;;;;;5026419;28;20214;-79
2020/12/06 01:07:50;;;;;;;24.10;17.67;;;1.00;99.90;;;;;;5031067;28;20207;-79
2020/12/06 01:10:17;;;;;;;23.63;16.93;;;1.00;99.90;;;;;;5028202;28;20205;-79
2020/12/06 01:12:44;;;;;;;20.77;16.33;;;0.90;99.90;;;;;;5027489;28;20198;-80
2020/12/06 01:15:11;;;;;;;24.37;17.03;;;0.90;99.90;;;;;;5027426;28;20210;-79
2020/12/06 01:17:38;;;;;;;23.27;15.93;;;0.90;99.90;;;;;;5026097;28;20206;-79
2020/12/06 01:20:06;;;;;;;22.77;16.67;;;0.90;99.90;;;;;;5027275;28;20201;-84
2020/12/06 01:22:33;;;;;;;24.63;17.00;;;0.90;99.90;;;;;;5027502;28;20206;-82
2020/12/06 01:24:59;;;;;;;21.93;16.53;;;0.90;99.90;;;;;;5028035;28;20233;-79
2020/12/06 01:27:25;;;;;;;22.10;17.07;;;0.90;99.90;;;;;;5043919;28;20618;-79
2020/12/06 01:29:52;;;;;;;23.67;16.27;;;0.90;99.90;;;;;;5043783;28;20197;-84
2020/12/06 01:32:21;;;;;;;24.10;17.60;;;0.90;99.90;;;;;;5042531;28;20202;-84
2020/12/06 01:34:47;;;;;;;22.50;16.73;;;0.90;99.90;;;;;;5045210;28;20260;-81
2020/12/06 01:37:14;;;;;;;19.77;15.87;;;0.90;99.90;;;;;;5046420;28;20198;-81
2020/12/06 01:39:40;;;;;;;20.60;15.40;;;0.90;99.90;;;;;;5045887;28;20206;-84
2020/12/06 01:42:06;;;;;;;21.43;15.70;;;0.90;99.90;;;;;;5046818;28;20205;-82
2020/12/06 01:44:33;;;;;;;19.20;14.63;;;0.90;99.90;;;;;;5046730;28;20201;-78
2020/12/06 01:47:00;;;;;;;18.73;14.50;;;0.90;99.90;;;;;;5045982;28;20226;-78
2020/12/06 01:49:35;;;;;;;18.00;13.77;;;0.90;99.90;;;;;;5047824;28;20503;-82
2020/12/06 01:52:02;;;;;;;18.07;13.93;;;0.90;99.90;;;;;;5047019;28;20775;-83
2020/12/06 01:54:28;;;;;;;20.70;14.13;;;0.90;99.90;;;;;;5046450;28;20198;-79
2020/12/06 01:56:55;;;;;;;17.53;13.50;;;0.80;99.90;;;;;;5047631;28;20194;-79
2020/12/06 01:59:21;;;;;;;19.27;14.63;;;0.80;99.90;;;;;;5046740;28;20205;-83
2020/12/06 02:01:54;;;;;;;17.57;12.83;;;0.80;99.90;;;;;;5046385;28;20206;-81
2020/12/06 02:04:23;;;;;;;16.30;13.73;;;0.80;99.90;;;;;;5048005;28;20194;-82
2020/12/06 02:06:50;;;;;;;17.23;12.97;;;0.70;99.90;;;;;;5045874;28;20692;-78
2020/12/06 02:09:17;;;;;;;15.70;12.87;;;0.70;99.90;;;;;;5046554;28;20213;-84
2020/12/06 02:11:44;;;;;;;18.27;12.60;;;0.70;99.90;;;;;;5047736;28;20209;-83
2020/12/06 02:14:11;;;;;;;15.90;11.73;;;0.70;99.90;;;;;;5046611;28;20210;-78
2020/12/06 02:16:37;;;;;;;17.57;12.97;;;0.70;99.90;;;;;;5046579;28;20665;-81
2020/12/06 02:19:05;;;;;;;16.30;12.53;;;0.60;99.90;;;;;;5046444;28;20186;-84
2020/12/06 02:21:33;;;;;;;15.93;12.63;;;0.60;99.90;;;;;;5046843;28;20190;-83
2020/12/06 02:23:59;;;;;;;16.93;12.77;;;0.60;99.90;;;;;;5046698;28;20198;-81
2020/12/06 02:26:25;;;;;;;17.67;13.37;;;0.60;99.90;;;;;;5030113;28;20237;-79
2020/12/06 02:28:51;;;;;;;18.10;12.80;;;0.70;99.90;;;;;;5024122;28;20238;-82
2020/12/06 02:31:18;;;;;;;19.50;12.77;;;0.70;99.90;;;;;;5027020;28;20202;-83
2020/12/06 02:33:44;;;;;;;17.00;12.63;;;0.70;99.90;;;;;;5029606;28;20234;-82
2020/12/06 02:36:10;;;;;;;17.23;13.50;;;0.70;99.90;;;;;;5030084;28;20202;-82
2020/12/06 02:38:37;;;;;;;18.13;13.83;;;0.70;99.90;;;;;;5029869;28;20205;-82
2020/12/06 02:41:04;;;;;;;16.13;13.20;;;0.80;99.90;;;;;;5029608;28;20201;-82
2020/12/06 02:43:30;;;;;;;16.60;11.70;;;0.80;99.90;;;;;;5028381;28;20202;-82
2020/12/06 02:45:56;;;;;;;17.77;13.03;;;0.80;99.90;;;;;;5029128;28;20219;-83
2020/12/06 02:48:22;;;;;;;15.13;13.20;;;0.80;99.90;;;;;;5032449;28;20213;-82
2020/12/06 02:50:49;;;;;;;21.33;13.83;;;0.70;99.90;;;;;;5033030;28;20210;-81
2020/12/06 02:53:15;;;;;;;18.97;13.73;;;0.70;99.90;;;;;;5033075;28;20202;-82
2020/12/06 02:55:42;;;;;;;18.77;13.43;;;0.70;99.90;;;;;;5032731;28;20536;-82
2020/12/06 02:58:09;;;;;;;15.83;12.77;;;0.70;99.90;;;;;;5032103;28;20206;-82
2020/12/06 03:00:35;;;;;;;17.80;13.63;;;0.70;99.90;;;;;;5033086;28;20210;-82
2020/12/06 03:03:01;;;;;;;20.20;14.17;;;0.70;99.90;;;;;;5032312;28;20198;-82
2020/12/06 03:05:28;;;;;;;16.77;13.70;;;0.70;99.90;;;;;;5031861;28;20313;-83
2020/12/06 03:07:55;;;;;;;17.93;13.90;;;0.70;99.90;;;;;;5032091;28;20621;-83
2020/12/06 03:10:21;;;;;;;17.67;13.20;;;0.70;99.90;;;;;;5030282;28;20508;-82
2020/12/06 03:12:48;;;;;;;17.27;14.17;;;0.70;99.90;;;;;;5030038;28;20197;-82
2020/12/06 03:15:15;;;;;;;23.33;16.03;;;0.70;99.90;;;;;;5027951;28;20198;-80
2020/12/06 03:17:41;;;;;;;18.30;13.83;;;0.70;99.90;;;;;;5024856;28;20199;-80
2020/12/06 03:20:07;;;;;;;23.50;15.60;;;0.80;99.90;;;;;;5025581;28;20217;-80
2020/12/06 03:22:34;;;;;;;19.33;15.33;;;0.80;99.90;;;;;;5025519;28;20203;-80
2020/12/06 03:25:01;;;;;;;24.30;16.03;;;0.70;99.90;;;;;;5027874;28;20229;-80
2020/12/06 03:27:28;;;;;;;21.30;16.03;;;0.70;99.90;;;;;;5031459;28;20198;-82
2020/12/06 03:29:55;;;;;;;20.83;15.13;;;0.70;99.90;;;;;;5027876;28;20209;-78
2020/12/06 03:32:22;;;;;;;19.53;15.13;;;0.70;99.90;;;;;;5028141;28;20210;-80
2020/12/06 03:34:48;;;;;;;21.17;16.73;;;0.70;99.90;;;;;;5031482;28;20250;-82
2020/12/06 03:37:15;;;;;;;23.13;15.70;;;0.70;99.90;;;;;;5029938;28;20214;-80
2020/12/06 03:39:42;;;;;;;22.17;16.67;;;0.80;99.90;;;;;;5028580;28;20190;-79
2020/12/06 03:42:08;;;;;;;19.97;15.67;;;0.80;99.90;;;;;;5028444;28;20206;-79
2020/12/06 03:44:34;;;;;;;23.00;17.33;;;0.80;99.90;;;;;;5028022;28;20848;-80
2020/12/06 03:47:02;;;;;;;22.87;15.67;;;0.80;99.90;;;;;;5026054;28;20500;-79
2020/12/06 03:49:28;;;;;;;22.83;17.10;;;0.70;99.90;;;;;;5027269;28;20217;-83
2020/12/06 03:51:54;;;;;;;26.53;17.33;;;0.70;99.90;;;;;;5026932;28;20203;-78
2020/12/06 03:54:21;;;;;;;26.83;17.73;;;0.70;99.90;;;;;;5025481;28;20198;-79
2020/12/06 03:56:47;;;;;;;22.93;16.87;;;0.80;99.90;;;;;;5027877;28;20198;-79
2020/12/06 03:59:14;;;;;;;24.80;18.00;;;0.80;99.90;;;;;;5027243;28;20623;-80
2020/12/06 04:01:40;;;;;;;21.97;16.40;;;0.80;99.90;;;;;;5025936;28;20826;-78
2020/12/06 04:04:07;;;;;;;26.73;17.90;;;0.80;99.90;;;;;;5026131;28;20238;-77
2020/12/06 04:06:33;;;;;;;22.33;17.70;;;0.70;99.90;;;;;;5026675;28;20227;-78
2020/12/06 04:09:00;;;;;;;25.20;19.37;;;0.70;99.90;;;;;;5025772;28;20238;-78
2020/12/06 04:11:26;;;;;;;25.07;19.13;;;0.80;99.90;;;;;;5026954;28;20544;-78
2020/12/06 04:13:52;;;;;;;25.53;19.13;;;0.70;99.90;;;;;;5026838;28;20226;-78
2020/12/06 04:16:19;;;;;;;30.13;19.70;;;0.80;99.90;;;;;;5026321;28;20214;-79
2020/12/06 04:18:45;;;;;;;25.20;18.60;;;0.80;99.90;;;;;;5025684;28;20203;-79
2020/12/06 04:21:12;;;;;;;23.97;17.80;;;0.80;99.90;;;;;;5026033;28;20218;-77
2020/12/06 04:23:39;;;;;;;27.20;18.43;;;0.70;99.90;;;;;;5026261;28;20486;-79
2020/12/06 04:26:06;;;;;;;23.63;19.00;;;0.70;99.90;;;;;;5036948;28;20344;-79
2020/12/06 04:28:32;;;;;;;26.97;18.60;;;0.70;99.90;;;;;;5045530;28;20210;-80
2020/12/06 04:30:58;;;;;;;28.50;20.20;;;0.60;99.90;;;;;;5046958;28;20612;-81
2020/12/06 04:33:25;;;;;;;31.07;20.87;;;0.60;99.90;;;;;;5046146;28;20333;-79
2020/12/06 04:35:51;;;;;;;28.30;20.27;;;0.70;99.90;;;;;;5046043;28;20198;-78
2020/12/06 04:38:19;;;;;;;24.97;19.00;;;0.70;99.90;;;;;;5046103;28;20483;-78
2020/12/06 04:40:45;;;;;;;31.67;20.87;;;0.70;99.90;;;;;;5046414;28;20202;-83
2020/12/06 04:43:14;;;;;;;28.70;19.70;;;0.80;99.90;;;;;;5045987;28;20206;-78
2020/12/06 04:45:41;;;;;;;26.80;19.93;;;0.70;99.90;;;;;;5046667;28;20336;-79
2020/12/06 04:48:10;;;;;;;27.57;19.17;;;0.70;99.90;;;;;;5045691;28;20288;-78
2020/12/06 04:50:38;;;;;;;27.47;19.83;;;0.70;99.90;;;;;;5045837;28;20289;-83
2020/12/06 04:53:05;;;;;;;24.20;19.57;;;0.70;99.90;;;;;;5046140;28;20209;-78
2020/12/06 04:55:34;;;;;;;23.83;19.20;;;0.70;99.90;;;;;;5045747;28;20625;-79
2020/12/06 04:58:01;;;;;;;24.40;18.60;;;0.70;99.90;;;;;;5044946;28;20213;-79
2020/12/06 05:00:31;;;;;;;31.87;18.13;;;0.60;99.90;;;;;;5046706;28;20256;-79
2020/12/06 05:03:00;;;;;;;24.63;18.43;;;0.60;99.90;;;;;;5044748;28;20297;-79
2020/12/06 05:05:35;;;;;;;24.57;18.40;;;0.60;99.90;;;;;;5045959;28;20198;-80
2020/12/06 05:08:07;;;;;;;25.47;19.43;;;0.60;99.90;;;;;;5045577;28;20213;-82
2020/12/06 05:10:38;;;;;;;26.50;18.67;;;0.60;99.90;;;;;;5045140;28;20233;-83
2020/12/06 05:13:04;;;;;;;24.30;18.03;;;0.60;99.90;;;;;;5046208;28;20199;-80
2020/12/06 05:15:31;;;;;;;25.10;18.93;;;0.50;99.90;;;;;;5045645;28;20202;-79
2020/12/06 05:17:59;;;;;;;24.57;18.10;;;0.50;99.90;;;;;;5044871;28;20884;-78
2020/12/06 05:20:25;;;;;;;21.07;17.03;;;0.50;99.90;;;;;;5046463;28;20572;-82
2020/12/06 05:22:52;;;;;;;24.40;18.53;;;0.50;99.90;;;;;;5045447;28;20214;-78
2020/12/06 05:25:18;;;;;;;28.17;20.20;;;0.50;99.90;;;;;;5039634;28;20225;-79
2020/12/06 05:27:46;;;;;;;27.43;19.70;;;0.50;99.90;;;;;;5025521;28;20208;-82
2020/12/06 05:30:12;;;;;;;25.87;17.83;;;0.50;99.90;;;;;;5026154;28;20206;-78
2020/12/06 05:32:39;;;;;;;28.03;19.17;;;0.40;99.90;;;;;;5024745;28;20202;-79
2020/12/06 05:35:06;;;;;;;23.60;17.93;;;0.50;99.90;;;;;;5024632;28;20673;-77
2020/12/06 05:37:35;;;;;;;25.20;19.27;;;0.40;99.90;;;;;;5025379;28;20481;-80
2020/12/06 05:40:04;;;;;;;26.43;18.60;;;0.40;99.90;;;;;;5026304;28;20229;-82
2020/12/06 05:42:32;;;;;;;25.90;18.20;;;0.50;99.90;;;;;;5025715;28;20207;-80
2020/12/06 05:45:00;;;;;;;26.03;18.70;;;0.50;99.90;;;;;;5024738;28;20199;-78
2020/12/06 05:47:26;;;;;;;24.67;19.37;;;0.50;99.90;;;;;;5025848;28;20241;-80
2020/12/06 05:49:54;;;;;;;28.17;19.83;;;0.50;99.90;;;;;;5025257;28;20190;-81
2020/12/06 05:52:21;;;;;;;23.53;19.07;;;0.50;99.90;;;;;;5025725;28;20575;-78
2020/12/06 05:54:48;;;;;;;26.50;17.67;;;0.50;99.90;;;;;;5026207;28;20876;-79
2020/12/06 05:57:15;;;;;;;22.93;17.40;;;0.40;99.90;;;;;;5024741;28;20210;-81
2020/12/06 05:59:42;;;;;;;22.60;16.70;;;0.40;99.90;;;;;;5025521;28;20209;-82
2020/12/06 06:02:09;;;;;;;22.50;17.00;;;0.40;99.90;;;;;;5026436;28;20206;-80
2020/12/06 06:04:40;;;;;;;23.03;16.93;;;0.40;99.90;;;;;;5026093;28;20233;-78
2020/12/06 06:07:12;;;;;;;23.67;18.40;;;0.40;99.90;;;;;;5024409;28;20241;-80
2020/12/06 06:09:42;;;;;;;32.50;20.40;;;0.40;99.90;;;;;;5025518;28;20198;-79
2020/12/06 06:12:27;;;;;;;29.47;19.47;;;0.40;99.90;;;;;;5025784;28;20210;-82
2020/12/06 06:14:54;;;;;;;25.50;19.10;;;0.40;99.90;;;;;;5024976;28;20556;-81
2020/12/06 06:17:27;;;;;;;25.17;18.93;;;0.40;99.90;;;;;;5025231;28;20618;-82
2020/12/06 06:19:53;;;;;;;24.40;17.43;;;0.40;99.90;;;;;;5025680;28;20618;-81
2020/12/06 06:22:23;;;;;;;28.67;19.20;;;0.40;99.90;;;;;;5025640;28;20202;-79
2020/12/06 06:24:52;;;;;;;23.70;18.27;;;0.40;99.90;;;;;;5030531;28;20218;-82
2020/12/06 06:27:18;;;;;;;25.47;18.37;;;0.40;99.90;;;;;;5048861;28;20252;-81
2020/12/06 06:29:45;;;;;;;24.43;17.80;;;0.40;99.90;;;;;;5049315;28;20217;-78
2020/12/06 06:32:12;;;;;;;22.37;17.97;;;0.40;99.90;;;;;;5048822;28;20202;-81
2020/12/06 06:34:39;;;;;;;28.03;19.90;;;0.40;99.90;;;;;;5048416;28;20927;-79
2020/12/06 06:37:13;;;;;;;25.87;19.63;;;0.40;99.90;;;;;;5048767;28;20197;-80
2020/12/06 06:39:41;;;;;;;25.17;19.77;;;0.50;99.90;;;;;;5049082;28;20577;-78
2020/12/06 06:42:10;;;;;;;26.00;19.37;;;0.50;99.90;;;;;;5048125;28;20217;-78
2020/12/06 06:44:37;;;;;;;32.30;22.53;;;0.50;99.90;;;;;;5048878;28;20335;-77
2020/12/06 06:47:06;;;;;;;28.03;20.33;;;0.50;99.90;;;;;;5049137;28;20230;-80
2020/12/06 06:49:48;;;;;;;26.17;20.93;;;0.60;99.90;;;;;;5048079;28;20201;-80
2020/12/06 06:52:17;;;;;;;32.23;22.37;;;0.60;99.90;;;;;;5048447;28;20371;-81
2020/12/06 06:54:47;;;;;;;26.17;20.90;;;0.60;99.90;;;;;;5050087;28;20248;-82
2020/12/06 06:57:15;;;;;;;32.20;22.07;;;0.60;99.90;;;;;;5050276;28;20288;-83
2020/12/06 06:59:44;;;;;;;28.67;21.63;;;0.70;99.90;;;;;;5051404;28;20880;-80
2020/12/06 07:02:40;;;;;;;31.43;21.70;;;0.70;99.90;;;;;;5051923;28;20205;-83
2020/12/06 07:05:08;;;;;;;31.63;22.97;;;0.70;99.90;;;;;;5043696;28;20202;-79
2020/12/06 07:07:45;;;;;;;37.30;23.97;;;0.80;99.90;;;;;;5050495;28;20232;-81
2020/12/06 07:10:14;;;;;;;30.27;23.00;;;0.90;99.90;;;;;;5048813;28;20197;-78
2020/12/06 07:12:45;;;;;;;35.63;25.67;;;0.90;99.90;;;;;;5049925;28;20198;-82
2020/12/06 07:15:11;;;;;;;33.23;23.07;;;0.90;99.90;;;;;;5049037;28;20198;-82
2020/12/06 07:17:38;;;;;;;32.97;24.40;;;1.00;99.90;;;;;;5048607;28;20198;-79
2020/12/06 07:20:07;;;;;;;38.70;24.63;;;1.00;99.90;;;;;;5049542;28;20487;-82
2020/12/06 07:22:34;;;;;;;36.70;25.83;;;1.10;99.90;;;;;;5050371;28;20201;-82
2020/12/06 07:25:01;;;;;;;36.77;24.80;;;1.10;99.90;;;;;;5049520;28;20221;-83
2020/12/06 07:27:27;;;;;;;35.50;26.40;;;1.10;99.90;;;;;;5049382;28;20221;-80
2020/12/06 07:29:53;;;;;;;37.70;26.20;;;1.20;99.90;;;;;;5049017;28;20209;-78
2020/12/06 07:32:20;;;;;;;33.83;26.40;;;1.20;99.90;;;;;;5047791;28;20210;-80
2020/12/06 07:34:47;;;;;;;36.50;26.30;;;1.30;99.90;;;;;;5048196;28;20311;-80
2020/12/06 07:37:14;;;;;;;38.07;26.40;;;1.40;99.90;;;;;;5048621;28;20198;-80
2020/12/06 07:39:44;;;;;;;40.97;27.83;;;1.40;99.90;;;;;;5048887;28;20312;-79
2020/12/06 07:42:18;;;;;;;36.90;26.67;;;1.50;99.90;;;;;;5049383;28;20225;-80
2020/12/06 07:44:45;;;;;;;32.90;25.00;;;1.50;99.90;;;;;;5048943;28;20217;-80
2020/12/06 07:47:12;;;;;;;37.30;26.60;;;1.50;99.90;;;;;;5047622;28;20221;-79
2020/12/06 07:49:43;;;;;;;37.17;26.23;;;1.50;99.90;;;;;;5049020;28;20217;-81
2020/12/06 07:52:13;;;;;;;37.33;27.03;;;1.50;99.90;;;;;;5049344;28;20613;-81
2020/12/06 07:54:40;;;;;;;35.80;25.87;;;1.50;99.90;;;;;;5050666;28;20586;-82
2020/12/06 07:57:08;;;;;;;38.57;26.13;;;1.60;99.90;;;;;;5049934;28;20208;-81
2020/12/06 07:59:36;;;;;;;40.60;28.73;;;1.60;99.90;;;;;;5049335;28;20591;-82
2020/12/06 08:02:04;;;;;;;41.03;29.20;;;1.70;99.90;;;;;;5049288;28;20315;-82
2020/12/06 08:04:35;;;;;;;37.73;28.00;;;1.70;99.90;;;;;;5046297;28;20202;-82
2020/12/06 08:07:10;;;;;;;37.00;27.17;;;1.80;99.90;;;;;;5045788;28;20506;-82
2020/12/06 08:09:40;;;;;;;37.80;26.77;;;1.80;99.90;;;;;;5050592;28;20459;-82
2020/12/06 08:12:10;;;;;;;35.70;26.37;;;1.80;99.90;;;;;;5049659;28;20213;-81
2020/12/06 08:14:37;;;;;;;38.33;28.27;;;1.90;99.90;;;;;;5050850;28;20206;-82
2020/12/06 08:17:04;;;;;;;39.77;28.67;;;2.00;99.90;;;;;;5050499;28;20198;-81
2020/12/06 08:19:31;;;;;;;41.93;30.37;;;2.00;99.90;;;;;;5050859;28;20205;-80
2020/12/06 08:22:02;;;;;;;41.50;29.43;;;2.10;99.90;;;;;;5050099;28;20202;-83
2020/12/06 08:24:30;;;;;;;35.63;26.87;;;2.10;99.90;;;;;;5049849;28;20228;-83
2020/12/06 08:26:57;;;;;;;38.77;29.10;;;2.10;99.90;;;;;;5031111;28;20242;-83
2020/12/06 08:29:39;;;;;;;40.10;28.93;;;2.20;99.90;;;;;;5030225;28;20229;-83
2020/12/06 08:32:06;;;;;;;42.07;28.73;;;2.20;99.90;;;;;;5030009;28;20227;-84
2020/12/06 08:34:32;;;;;;;43.73;29.80;;;2.20;99.90;;;;;;5029662;28;20270;-83
2020/12/06 08:37:14;;;;;;;40.43;28.70;;;2.20;99.90;;;;;;5030782;28;20206;-86
2020/12/06 08:39:41;;;;;;;39.17;28.17;;;2.20;99.90;;;;;;5029820;28;20207;-87
2020/12/06 08:42:15;;;;;;;39.53;28.00;;;2.30;99.90;;;;;;5031952;28;20213;-86
2020/12/06 08:44:59;;;;;;;38.83;28.93;;;2.30;99.90;;;;;;5031256;28;20207;-87
2020/12/06 08:47:27;;;;;;;35.87;27.17;;;2.30;99.90;;;;;;5031780;28;20210;-87
2020/12/06 08:50:06;;;;;;;36.97;27.70;;;2.40;99.90;;;;;;5032115;28;20423;-87
2020/12/06 08:52:32;;;;;;;38.13;27.80;;;2.40;99.90;;;;;;5031930;28;20198;-89
2020/12/06 08:54:59;;;;;;;45.50;29.93;;;2.40;99.90;;;;;;5031690;28;20199;-88
2020/12/06 08:57:26;;;;;;;45.03;28.60;;;2.50;99.90;;;;;;5031437;28;20257;-89
2020/12/06 08:59:54;;;;;;;38.10;29.00;;;2.60;99.90;;;;;;5031568;28;20312;-88
2020/12/06 09:02:22;;;;;;;39.00;29.37;;;2.70;99.90;;;;;;5031087;28;20222;-89
2020/12/06 09:04:49;;;;;;;38.57;28.63;;;2.70;99.90;;;;;;5031409;28;20214;-89
2020/12/06 09:07:15;;;;;;;42.43;30.20;;;2.70;99.90;;;;;;5031538;28;20222;-89
2020/12/06 09:09:41;;;;;;;36.83;28.53;;;2.70;99.90;;;;;;5031635;28;20202;-88
2020/12/06 09:12:07;;;;;;;42.43;29.43;;;2.80;99.90;;;;;;5029603;28;20211;-87
2020/12/06 09:14:34;;;;;;;40.20;28.97;;;2.80;99.90;;;;;;5025448;28;20205;-88
2020/12/06 09:17:01;;;;;;;41.13;28.50;;;2.90;99.90;;;;;;5025136;28;20201;-88
2020/12/06 09:19:27;;;;;;;38.70;29.23;;;2.90;99.90;;;;;;5034952;23;20533;-82
2020/12/06 09:21:53;;;;;;;35.93;26.90;;;2.90;99.90;;;;;;5028372;28;20206;-86
2020/12/06 09:24:20;;;;;;;36.43;28.40;;;3.00;99.90;;;;;;5027465;28;20763;-83
2020/12/06 09:26:46;;;;;;;35.90;28.77;;;3.00;99.90;;;;;;5028254;28;20226;-81
2020/12/06 09:29:13;;;;;;;41.17;28.77;;;3.00;99.90;;;;;;5024801;28;20213;-87
2020/12/06 09:31:39;;;;;;;35.87;27.90;;;3.10;99.90;;;;;;5024615;28;20207;-87
2020/12/06 09:34:06;;;;;;;37.77;28.47;;;3.10;99.90;;;;;;5028402;28;20198;-83
2020/12/06 09:36:32;;;;;;;37.77;27.87;;;3.10;99.90;;;;;;5029504;28;20203;-83
2020/12/06 09:38:59;;;;;;;41.97;28.50;;;3.30;99.90;;;;;;5029092;28;20206;-85
2020/12/06 09:41:25;;;;;;;36.13;27.03;;;3.30;99.90;;;;;;5029646;28;20198;-88
2020/12/06 09:43:52;;;;;;;35.40;26.33;;;3.20;99.90;;;;;;5030085;28;20205;-93
2020/12/06 09:46:18;;;;;;;38.00;27.30;;;3.20;99.90;;;;;;5029661;28;20226;-90
2020/12/06 09:48:45;;;;;;;35.53;26.13;;;3.30;99.90;;;;;;5030097;28;20203;-92
2020/12/06 09:51:12;;;;;;;33.87;25.30;;;3.30;99.90;;;;;;5030532;28;20206;-88
2020/12/06 09:53:38;;;;;;;37.40;27.03;;;3.30;99.90;;;;;;5031020;28;20214;-92
2020/12/06 09:56:04;;;;;;;38.23;27.97;;;3.30;99.90;;;;;;5030493;28;20209;-87
2020/12/06 09:58:31;;;;;;;35.77;26.93;;;3.40;99.90;;;;;;5031330;28;20199;-94
2020/12/06 10:00:57;;;;;;;38.33;27.53;;;3.40;99.90;;;;;;5032052;28;20473;-95
2020/12/06 10:03:24;;;;;;;38.63;27.20;;;3.50;99.90;;;;;;5032365;28;20221;-91
2020/12/06 10:05:50;;;;;;;39.77;28.43;;;3.50;99.90;;;;;;5031614;28;20194;-93
2020/12/06 10:08:19;;;;;;;36.63;26.33;;;3.60;99.90;;;;;;5031898;28;20226;-93
2020/12/06 10:10:46;;;;;;;41.27;26.13;;;3.70;99.90;;;;;;5030348;28;20219;-92
2020/12/06 10:13:12;;;;;;;35.53;25.93;;;3.80;99.90;;;;;;5031990;28;20586;-86
2020/12/06 10:15:39;;;;;;;36.77;26.67;;;3.80;99.90;;;;;;5029314;28;20595;-90
2020/12/06 10:18:05;;;;;;;35.90;26.53;;;3.80;99.90;;;;;;5027061;28;20199;-94
2020/12/06 10:20:32;;;;;;;36.23;26.77;;;3.90;99.90;;;;;;5030007;28;20202;-82
2020/12/06 10:22:58;;;;;;;38.60;26.63;;;3.90;99.90;;;;;;5030801;28;20207;-86
2020/12/06 10:25:25;;;;;;;38.30;26.97;;;4.00;99.90;;;;;;5030457;28;20622;-87
2020/12/06 10:27:52;;;;;;;33.67;24.33;;;4.00;99.90;;;;;;5028410;28;20234;-86
2020/12/06 10:30:18;;;;;;;34.93;25.70;;;4.00;99.90;;;;;;5024207;28;20615;-86
2020/12/06 10:32:45;;;;;;;31.67;23.40;;;4.10;99.90;;;;;;5025173;28;20950;-88
2020/12/06 10:35:11;;;;;;;34.77;25.30;;;4.10;99.90;;;;;;5024165;28;20215;-89
2020/12/06 10:37:37;;;;;;;32.37;23.47;;;4.20;99.90;;;;;;5013103;28;20635;-89
2020/12/06 10:40:04;;;;;;;34.77;25.20;;;4.10;99.90;;;;;;5031075;28;20594;-88
2020/12/06 10:42:31;;;;;;;32.63;23.80;;;4.20;99.90;;;;;;5030767;28;20511;-87
2020/12/06 10:44:57;;;;;;;33.80;24.10;;;4.20;99.90;;;;;;5030842;28;20210;-91
2020/12/06 10:47:23;;;;;;;29.83;23.23;;;4.30;99.90;;;;;;5030472;28;20222;-87
2020/12/06 10:49:51;;;;;;;29.80;22.40;;;4.30;99.90;;;;;;5029389;28;20203;-85
2020/12/06 10:52:17;;;;;;;34.57;24.67;;;4.30;99.90;;;;;;5029473;28;20187;-89
2020/12/06 10:54:43;;;;;;;33.33;25.23;;;4.30;99.90;;;;;;5030449;28;20201;-90
2020/12/06 10:57:10;;;;;;;30.10;23.43;;;4.40;99.90;;;;;;5030154;28;20199;-90
2020/12/06 10:59:37;;;;;;;33.57;23.63;;;4.40;99.90;;;;;;5030171;28;20206;-82
2020/12/06 11:02:04;;;;;;;28.50;22.27;;;4.40;99.90;;;;;;5029751;28;20191;-88
2020/12/06 11:04:31;;;;;;;31.73;22.70;;;4.40;99.90;;;;;;5030234;28;20215;-86
2020/12/06 11:06:58;;;;;;;30.03;21.57;;;4.40;99.90;;;;;;5029896;28;20230;-85
2020/12/06 11:09:24;;;;;;;30.43;22.27;;;4.40;99.90;;;;;;5032281;28;20195;-88
2020/12/06 11:11:51;;;;;;;29.83;21.80;;;4.40;99.90;;;;;;5033653;28;20308;-87
2020/12/06 11:14:17;;;;;;;32.40;22.47;;;4.40;99.90;;;;;;5034122;28;20206;-87
2020/12/06 11:16:45;;;;;;;29.93;21.80;;;4.50;99.90;;;;;;5033488;28;20207;-91
2020/12/06 11:19:11;;;;;;;29.97;22.10;;;4.50;99.90;;;;;;5033722;28;20230;-83
2020/12/06 11:21:37;;;;;;;28.03;21.40;;;4.50;99.90;;;;;;5033909;28;20191;-89
2020/12/06 11:24:04;;;;;;;27.63;19.50;;;4.50;99.90;;;;;;5033100;28;20210;-85
2020/12/06 11:26:30;;;;;;;30.30;22.00;;;4.50;99.90;;;;;;5033804;28;20226;-90
2020/12/06 11:28:56;;;;;;;27.57;21.07;;;4.50;99.90;;;;;;5033380;28;20202;-83
2020/12/06 11:31:22;;;;;;;26.13;20.60;;;4.60;99.90;;;;;;5033044;28;20230;-88
2020/12/06 11:33:49;;;;;;;28.37;21.07;;;4.60;99.90;;;;;;5033461;28;20211;-83
2020/12/06 11:36:16;;;;;;;29.40;22.50;;;4.60;99.90;;;;;;5033470;28;20207;-88
2020/12/06 11:38:42;;;;;;;29.73;20.93;;;4.60;99.90;;;;;;5033683;28;20191;-87
2020/12/06 11:41:09;;;;;;;26.37;19.73;;;4.60;99.90;;;;;;5033352;28;20203;-92
2020/12/06 11:43:35;;;;;;;26.27;20.57;;;4.70;99.90;;;;;;5031377;28;20667;-84
2020/12/06 11:46:01;;;;;;;28.57;20.93;;;4.80;99.90;;;;;;5031966;28;20658;-81
2020/12/06 11:48:27;;;;;;;28.23;21.00;;;4.80;99.90;;;;;;5031705;28;20241;-84
2020/12/06 11:50:55;;;;;;;27.70;20.63;;;4.70;99.90;;;;;;5031688;28;20210;-90
2020/12/06 11:53:21;;;;;;;28.07;20.87;;;4.70;99.90;;;;;;5032218;28;20207;-84
2020/12/06 11:55:47;;;;;;;28.63;21.00;;;4.70;99.90;;;;;;5031756;28;20775;-88
2020/12/06 11:58:13;;;;;;;26.77;20.20;;;4.70;99.90;;;;;;5031916;28;20206;-91
2020/12/06 12:00:40;;;;;;;27.57;21.47;;;4.60;99.90;;;;;;5033256;28;20209;-83
2020/12/06 12:03:06;;;;;;;29.03;20.37;;;4.60;99.90;;;;;;5031400;28;20198;-84
2020/12/06 12:05:33;;;;;;;29.43;21.60;;;4.60;99.90;;;;;;5032086;28;20209;-84
2020/12/06 12:08:00;;;;;;;26.20;19.80;;;4.70;99.90;;;;;;5032123;28;20284;-94
2020/12/06 12:10:26;;;;;;;31.87;22.40;;;4.70;99.90;;;;;;5031291;28;20452;-88
2020/12/06 12:12:53;;;;;;;29.90;22.70;;;4.70;99.90;;;;;;5031426;28;20198;-83
2020/12/06 12:15:19;;;;;;;25.50;20.73;;;4.70;99.90;;;;;;5031811;28;20210;-89
2020/12/06 12:17:46;;;;;;;28.03;20.13;;;4.70;99.90;;;;;;5031803;28;20194;-89
2020/12/06 12:20:12;;;;;;;24.80;19.77;;;4.60;99.90;;;;;;5031231;28;20270;-88
2020/12/06 12:22:38;;;;;;;29.90;21.70;;;4.60;99.90;;;;;;5032804;28;20199;-89
2020/12/06 12:25:05;;;;;;;28.77;22.43;;;4.60;99.90;;;;;;5032125;28;20634;-89
2020/12/06 12:27:32;;;;;;;29.20;20.97;;;4.60;99.90;;;;;;5033370;28;20230;-93
2020/12/06 12:29:58;;;;;;;28.57;21.40;;;4.70;99.90;;;;;;5033597;28;20206;-95
2020/12/06 12:32:25;;;;;;;28.97;21.63;;;4.60;99.90;;;;;;5034118;28;20199;-92
2020/12/06 12:34:51;;;;;;;28.30;20.40;;;4.70;99.90;;;;;;5033780;28;20202;-96
2020/12/06 12:37:18;;;;;;;28.80;21.83;;;4.70;99.90;;;;;;5034532;28;20206;-94